createdAt,value
2023-04-12T00:04:16.506Z,100835.25
2023-04-12T00:09:21.243Z,100837.91
2023-04-12T00:14:24.414Z,100837.91
2023-04-12T00:19:27.878Z,100834.47
2023-04-12T00:24:32.438Z,100836.34
2023-04-12T00:29:35.898Z,100833.06
2023-04-12T00:34:39.063Z,100840.25
2023-04-12T00:39:44.260Z,100833.06
2023-04-12T00:44:47.412Z,100815.03
2023-04-12T00:49:50.627Z,100815.50
2023-04-12T00:54:55.442Z,100807.75
2023-04-12T00:59:58.278Z,100801.94
2023-04-12T01:05:01.933Z,100803.72
2023-04-12T01:10:11.012Z,100790.63
2023-04-12T01:15:16.984Z,100785.31
2023-04-12T01:20:24.840Z,100782.66
2023-04-12T01:25:40.497Z,100771.97
2023-04-12T01:30:47.265Z,100767.06
2023-04-12T01:35:52.935Z,100757.38
2023-04-12T01:40:56.969Z,100745.16
2023-04-12T01:46:01.564Z,100748.03
2023-04-12T01:51:07.730Z,100742.47
2023-04-12T01:56:12.961Z,100720.81
2023-04-12T02:01:19.265Z,100717.03
2023-04-12T02:06:24.282Z,100710.09
2023-04-12T02:11:27.166Z,100707.28
2023-04-12T02:16:32.639Z,100707.47
2023-04-12T02:21:41.429Z,100704.59
2023-04-12T02:26:44.680Z,100703.56
2023-04-12T02:31:49.320Z,100692.03
2023-04-12T02:36:52.693Z,100673.59
2023-04-12T02:41:56.954Z,100668.06
2023-04-12T02:47:01.700Z,100655.00
2023-04-12T02:52:05.116Z,100667.22
2023-04-12T02:57:08.489Z,100659.56
2023-04-12T03:02:13.229Z,100657.88
2023-04-12T03:07:16.479Z,100658.41
2023-04-12T03:12:19.754Z,100675.28
2023-04-12T03:17:24.620Z,100685.44
2023-04-12T03:22:27.569Z,100672.59
2023-04-12T03:27:30.767Z,100652.81
2023-04-12T03:32:35.858Z,100651.00
2023-04-12T03:37:44.154Z,100644.78
2023-04-12T03:42:47.422Z,100621.88
2023-04-12T03:47:52.067Z,100626.38
2023-04-12T03:52:55.408Z,100633.41
2023-04-12T03:57:58.681Z,100634.50
2023-04-12T04:03:05.404Z,100627.69
2023-04-12T04:08:09.150Z,100621.56
2023-04-12T04:13:12.460Z,100606.50
2023-04-12T04:18:17.113Z,100610.00
2023-04-12T04:23:20.322Z,100606.72
2023-04-12T04:28:23.611Z,100608.47
2023-04-12T04:33:28.399Z,100604.28
2023-04-12T04:38:33.017Z,100595.94
2023-04-12T04:43:40.101Z,100583.25
2023-04-12T04:48:44.960Z,100586.22
2023-04-12T04:53:48.242Z,100589.56
2023-04-12T04:58:51.483Z,100581.91
2023-04-12T05:03:57.006Z,100593.22
2023-04-12T05:09:01.734Z,100589.88
2023-04-12T05:14:05.015Z,100582.88
2023-04-12T05:19:09.648Z,100560.56
2023-04-12T05:24:12.870Z,100568.41
2023-04-12T05:29:16.256Z,100561.34
2023-04-12T05:34:20.912Z,100546.03
2023-04-12T05:39:24.220Z,100543.13
2023-04-12T05:44:27.486Z,100549.69
2023-04-12T05:49:32.522Z,100548.72
2023-04-12T05:54:35.760Z,100542.53
2023-04-12T05:59:39.030Z,100542.22
2023-04-12T06:04:50.752Z,100530.06
2023-04-12T06:09:54.967Z,100531.75
2023-04-12T06:14:58.332Z,100530.91
2023-04-12T06:20:04.633Z,100529.69
2023-04-12T06:25:09.367Z,100515.81
2023-04-12T06:30:13.174Z,100513.63
2023-04-12T06:35:18.457Z,100510.09
2023-04-12T06:40:21.860Z,100506.56
2023-04-12T06:45:25.264Z,100504.28
2023-04-12T06:50:29.871Z,100504.63
2023-04-12T06:55:33.374Z,100506.34
2023-04-12T07:00:36.704Z,100506.75
2023-04-12T07:05:41.610Z,100492.41
2023-04-12T07:10:44.647Z,100480.06
2023-04-12T07:15:48.191Z,100481.31
2023-04-12T07:20:57.689Z,100489.19
2023-04-12T07:26:01.885Z,100496.53
2023-04-12T07:31:07.137Z,100518.72
2023-04-12T07:36:12.790Z,100524.13
2023-04-12T07:41:16.091Z,100520.28
2023-04-12T07:46:19.410Z,100498.81
2023-04-12T07:51:24.135Z,100498.03
2023-04-12T07:56:27.462Z,100509.41
2023-04-12T08:01:31.290Z,100495.19
2023-04-12T08:06:35.941Z,100485.13
2023-04-12T08:11:40.321Z,100499.31
2023-04-12T08:16:43.544Z,100486.31
2023-04-12T08:21:48.170Z,100472.78
2023-04-12T08:26:52.292Z,100474.13
2023-04-12T08:31:56.564Z,100459.50
2023-04-12T08:37:01.215Z,100454.81
2023-04-12T08:42:06.033Z,100467.75
2023-04-12T08:47:10.949Z,100480.75
2023-04-12T08:52:15.740Z,100510.00
2023-04-12T08:57:20.564Z,100528.13
2023-04-12T09:02:24.100Z,100526.63
2023-04-12T09:07:30.762Z,100527.44
2023-04-12T09:12:34.052Z,100553.59
2023-04-12T09:17:39.277Z,100559.16
2023-04-12T09:22:45.458Z,100581.44
2023-04-12T09:27:49.193Z,100593.91
2023-04-12T09:32:53.723Z,100601.06
2023-04-12T09:38:08.231Z,100613.22
2023-04-12T09:43:11.495Z,100613.13
2023-04-12T09:48:20.743Z,100621.78
2023-04-12T09:53:26.855Z,100627.38
2023-04-12T09:58:33.037Z,100641.91
2023-04-12T10:03:37.336Z,100658.22
2023-04-12T10:08:43.208Z,100679.13
2023-04-12T10:13:46.760Z,100678.97
2023-04-12T10:18:52.650Z,100685.84
2023-04-12T10:23:57.533Z,100690.38
2023-04-12T10:29:30.821Z,100708.63
2023-04-12T10:34:34.102Z,100703.44
2023-04-12T10:39:43.258Z,100707.03
2023-04-12T10:44:46.636Z,100714.28
2023-04-12T10:50:24.815Z,100715.69
2023-04-12T10:55:33.484Z,100713.13
2023-04-12T11:01:11.709Z,100714.47
2023-04-12T11:06:26.907Z,100729.28
2023-04-12T11:11:36.140Z,100728.38
2023-04-12T11:17:12.639Z,100730.84
2023-04-12T11:22:17.531Z,100729.59
2023-04-12T11:27:23.132Z,100738.81
2023-04-12T11:32:27.766Z,100746.03
2023-04-12T11:37:32.062Z,100743.75
2023-04-12T11:42:37.021Z,100750.41
2023-04-12T11:47:43.812Z,100741.72
2023-04-12T11:52:47.033Z,100737.47
2023-04-12T11:57:56.033Z,100732.72
2023-04-12T12:03:07.665Z,100736.38
2023-04-12T12:08:12.066Z,100733.13
2023-04-12T12:13:17.539Z,100737.47
2023-04-12T12:18:21.300Z,100733.47
2023-04-12T12:23:31.688Z,100741.06
2023-04-12T12:28:39.720Z,100732.00
2023-04-12T12:33:47.033Z,100730.50
2023-04-12T12:38:54.567Z,100733.75
2023-04-12T12:43:59.431Z,100730.28
2023-04-12T12:49:02.790Z,100727.16
2023-04-12T12:54:07.882Z,100735.34
2023-04-12T12:59:12.446Z,100745.06
2023-04-12T13:04:15.633Z,100752.38
2023-04-12T13:09:18.774Z,100761.16
2023-04-12T13:14:23.279Z,100757.72
2023-04-12T13:19:26.397Z,100763.28
2023-04-12T13:24:29.606Z,100752.97
2023-04-12T13:29:34.143Z,100755.13
2023-04-12T13:34:37.672Z,100749.91
2023-04-12T13:39:41.348Z,100754.03
2023-04-12T13:44:45.960Z,100739.25
2023-04-12T13:49:49.145Z,100734.97
2023-04-12T13:54:52.274Z,100735.34
2023-04-12T13:59:56.804Z,100733.47
2023-04-12T14:05:00.433Z,100720.72
2023-04-12T14:10:03.859Z,100713.78
2023-04-12T14:15:09.752Z,100714.06
2023-04-12T14:20:13.506Z,100696.25
2023-04-12T14:25:16.741Z,100694.22
2023-04-12T14:30:21.300Z,100699.56
2023-04-12T14:35:24.155Z,100691.44
2023-04-12T14:40:27.583Z,100697.28
2023-04-12T14:45:32.202Z,100697.09
2023-04-12T14:50:35.106Z,100696.81
2023-04-12T14:55:38.224Z,100691.59
2023-04-12T15:00:42.762Z,100681.88
2023-04-12T15:05:46.040Z,100677.03
2023-04-12T15:10:49.176Z,100676.75
2023-04-12T15:15:53.743Z,100681.31
2023-04-12T15:21:00.436Z,100677.84
2023-04-12T15:26:06.671Z,100669.50
2023-04-12T15:31:12.054Z,100680.88
2023-04-12T15:36:16.769Z,100682.44
2023-04-12T15:41:19.903Z,100682.63
2023-04-12T15:46:25.650Z,100695.59
2023-04-12T15:51:29.260Z,100676.81
2023-04-12T15:56:32.678Z,100673.13
2023-04-12T16:01:38.154Z,100690.47
2023-04-12T16:06:41.361Z,100694.75
2023-04-12T16:11:46.661Z,100692.22
2023-04-12T16:16:51.621Z,100694.25
2023-04-12T16:21:54.746Z,100697.97
2023-04-12T16:26:57.874Z,100712.28
2023-04-12T16:32:02.612Z,100710.03
2023-04-12T16:37:05.557Z,100723.50
2023-04-12T16:42:08.677Z,100729.56
2023-04-12T16:47:13.388Z,100739.50
2023-04-12T16:52:16.649Z,100737.91
2023-04-12T16:57:19.782Z,100745.78
2023-04-12T17:02:24.988Z,100746.66
2023-04-12T17:07:28.486Z,100762.31
2023-04-12T17:12:31.618Z,100778.59
2023-04-12T17:17:36.269Z,100773.97
2023-04-12T17:22:39.549Z,100788.25
2023-04-12T17:27:42.721Z,100789.16
2023-04-12T17:32:48.700Z,100795.75
2023-04-12T17:37:52.679Z,100781.66
2023-04-12T17:42:56.078Z,100781.75
2023-04-12T17:48:00.697Z,100777.84
2023-04-12T17:53:03.902Z,100781.19
2023-04-12T17:58:07.065Z,100777.31
2023-04-12T18:03:13.314Z,100764.78
2023-04-12T18:08:16.725Z,100770.41
2023-04-12T18:13:19.929Z,100777.97
2023-04-12T18:18:24.470Z,100781.72
2023-04-12T18:23:27.661Z,100788.47
2023-04-12T18:28:31.901Z,100772.84
2023-04-12T18:33:36.445Z,100780.56
2023-04-12T18:38:39.633Z,100784.84
2023-04-12T18:43:42.840Z,100782.53
2023-04-12T18:48:48.189Z,100801.72
2023-04-12T18:53:51.724Z,100811.03
2023-04-12T18:58:56.342Z,100824.94
2023-04-12T19:04:04.523Z,100840.19
2023-04-12T19:09:09.015Z,100838.31
2023-04-12T19:14:12.227Z,100846.16
2023-04-12T19:19:16.951Z,100860.31
2023-04-12T19:24:20.189Z,100870.03
2023-04-12T19:29:24.577Z,100887.31
2023-04-12T19:34:29.344Z,100894.72
2023-04-12T19:39:32.993Z,100909.97
2023-04-12T19:44:38.269Z,100899.13
2023-04-12T19:49:44.522Z,100919.22
2023-04-12T19:54:47.858Z,100917.44
2023-04-12T19:59:52.016Z,100930.16
2023-04-12T20:04:56.818Z,100926.69
2023-04-12T20:10:00.650Z,100929.31
2023-04-12T20:15:04.562Z,100935.28
2023-04-12T20:20:11.274Z,100943.50
2023-04-12T20:25:14.853Z,100953.69
2023-04-12T20:30:18.176Z,100961.78
2023-04-12T20:35:23.106Z,100966.19
2023-04-12T20:40:28.322Z,100973.38
2023-04-12T20:45:31.627Z,100968.06
2023-04-12T20:50:36.328Z,100986.31
2023-04-12T20:55:39.635Z,100991.03
2023-04-12T21:00:43.127Z,101002.81
2023-04-12T21:05:50.643Z,101003.88
2023-04-12T21:10:53.960Z,101006.81
2023-04-12T21:15:58.917Z,101014.97
2023-04-12T21:21:03.904Z,101015.97
2023-04-12T21:26:07.561Z,101014.84
2023-04-12T21:31:11.461Z,101014.97
2023-04-12T21:36:16.078Z,101017.13
2023-04-12T21:41:19.296Z,101018.19
2023-04-12T21:46:27.575Z,101007.97
2023-04-12T21:51:32.965Z,101008.25
2023-04-12T21:56:36.467Z,101007.72
2023-04-12T22:01:39.829Z,101014.69
2023-04-12T22:06:44.833Z,101015.94
2023-04-12T22:11:49.279Z,101015.41
2023-04-12T22:16:53.443Z,101012.28
2023-04-12T22:21:58.280Z,101006.69
2023-04-12T22:27:01.482Z,101006.69
2023-04-12T22:32:04.781Z,101011.78
2023-04-12T22:37:09.378Z,101013.97
2023-04-12T22:42:14.246Z,101006.63
2023-04-12T22:47:17.487Z,101014.28
2023-04-12T22:52:23.124Z,101006.56
2023-04-12T22:57:26.661Z,100995.63
2023-04-12T23:02:30.004Z,101008.16
2023-04-12T23:07:34.791Z,101013.63
2023-04-12T23:12:39.231Z,101025.09
2023-04-12T23:17:42.600Z,101019.28
2023-04-12T23:22:57.375Z,101019.09
2023-04-12T23:28:01.345Z,101027.50
2023-04-12T23:33:04.578Z,101020.44
2023-04-12T23:38:10.330Z,101008.56
2023-04-12T23:43:13.594Z,101004.38
2023-04-12T23:48:17.685Z,101014.00
2023-04-12T23:53:22.767Z,101025.16
2023-04-12T23:58:26.740Z,101025.25
